Time;durP1;ratioP1;P1;durP2;ratioP2;P2;SDS_P1;SDS_P2;PMS_P1;PMS_P2;Temp;Humidity;BMP_temperature;BMP_pressure;BME280_temperature;BME280_humidity;BME280_pressure;Samples;Min_cycle;Max_cycle;Signal;HPM_P1;HPM_P2
2021/06/17 00:00:42;;;;;;;;;;;27.40;95.10;;;;;;1831119;77;20444;-93
2021/06/17 00:03:11;;;;;;;;;;;27.50;95.10;;;;;;1824816;77;20217;-91
2021/06/17 00:05:47;;;;;;;;;;;27.50;95.10;;;;;;1826504;77;20250;-90
2021/06/17 00:08:20;;;;;;;;;;;27.50;95.10;;;;;;1819740;77;20229;-89
2021/06/17 00:10:50;;;;;;;;;;;27.60;95.00;;;;;;1820273;77;20188;-91
2021/06/17 00:13:21;;;;;;;;;;;27.60;95.00;;;;;;1821677;77;20204;-89
2021/06/17 00:15:52;;;;;;;;;;;27.60;95.00;;;;;;1778640;78;20175;-91
2021/06/17 00:18:26;;;;;;;;;;;27.60;94.90;;;;;;1794347;78;20268;-91
2021/06/17 00:20:55;;;;;;;;;;;27.60;94.90;;;;;;1814424;78;20233;-91
2021/06/17 00:23:25;;;;;;;;;;;27.70;95.00;;;;;;1828778;77;20230;-90
2021/06/17 00:26:02;;;;;;;;;;;27.70;95.00;;;;;;1830502;77;20282;-91
2021/06/17 00:28:31;;;;;;;;;;;27.70;95.00;;;;;;1825791;78;20183;-91
2021/06/17 00:31:03;;;;;;;;;;;27.80;95.00;;;;;;1789596;78;20198;-91
2021/06/17 00:33:34;;;;;;;;;;;27.80;94.90;;;;;;1787255;78;20230;-91
2021/06/17 00:36:03;;;;;;;;;;;27.80;94.80;;;;;;1784031;78;20282;-90
2021/06/17 00:38:33;;;;;;;;;;;27.90;94.70;;;;;;1750902;80;20196;-92
2021/06/17 00:41:04;;;;;;;;;;;27.90;94.70;;;;;;1791912;78;20202;-87
2021/06/17 00:43:33;;;;;;;;;;;27.90;94.70;;;;;;1789190;79;20226;-85
2021/06/17 00:46:03;;;;;;;;;;;27.90;94.60;;;;;;1805499;78;20250;-87
2021/06/17 00:48:33;;;;;;;;;;;27.90;94.70;;;;;;1791081;78;20196;-87
2021/06/17 00:51:03;;;;;;;;;;;28.00;94.50;;;;;;1784616;79;20198;-88
2021/06/17 00:53:34;;;;;;;;;;;28.00;94.40;;;;;;1789686;79;20202;-88
2021/06/17 00:56:04;;;;;;;;;;;28.10;94.30;;;;;;1794925;78;20301;-89
2021/06/17 00:58:34;;;;;;;;;;;28.10;94.30;;;;;;1783210;78;20190;-90
2021/06/17 01:01:03;;;;;;;;;;;28.10;94.30;;;;;;1769977;80;20169;-89
2021/06/17 01:03:33;;;;;;;;;;;28.10;94.40;;;;;;1786901;80;20679;-88
2021/06/17 01:06:03;;;;;;;;;;;28.20;94.40;;;;;;1783936;79;20188;-89
2021/06/17 01:08:34;;;;;;;;;;;28.30;94.20;;;;;;1796684;78;20168;-90
2021/06/17 01:11:06;;;;;;;;;;;28.40;94.00;;;;;;1810257;78;20204;-87
2021/06/17 01:13:37;;;;;;;;;;;28.40;93.90;;;;;;1810834;78;20246;-87
2021/06/17 01:16:08;;;;;;;;;;;28.50;93.70;;;;;;1808388;79;20216;-88
2021/06/17 01:18:39;;;;;;;;;;;28.60;93.70;;;;;;1809877;79;20517;-87
2021/06/17 01:21:11;;;;;;;;;;;28.60;93.40;;;;;;1809835;79;20308;-88
2021/06/17 01:23:42;;;;;;;;;;;28.60;93.20;;;;;;1810387;79;20227;-88
2021/06/17 01:26:13;;;;;;;;;;;28.60;93.20;;;;;;1824710;78;20151;-88
2021/06/17 01:28:48;;;;;;;;;;;28.70;93.20;;;;;;1809356;78;20188;-87
2021/06/17 01:31:19;;;;;;;;;;;28.70;93.00;;;;;;1819653;78;20188;-87
2021/06/17 01:33:49;;;;;;;;;;;28.80;92.60;;;;;;1820752;78;20191;-87
2021/06/17 01:36:20;;;;;;;;;;;28.90;92.50;;;;;;1813872;78;20464;-88
2021/06/17 01:38:51;;;;;;;;;;;29.00;92.40;;;;;;1798229;80;20185;-88
2021/06/17 01:41:22;;;;;;;;;;;29.10;92.40;;;;;;1796411;78;20502;-87
2021/06/17 01:43:52;;;;;;;;;;;29.20;92.10;;;;;;1798019;79;20210;-88
2021/06/17 01:46:22;;;;;;;;;;;29.40;91.80;;;;;;1769631;81;20530;-87
2021/06/17 01:48:53;;;;;;;;;;;29.60;91.60;;;;;;1778679;78;20185;-88
2021/06/17 01:51:24;;;;;;;;;;;29.60;91.40;;;;;;1812275;78;20277;-86
2021/06/17 01:53:54;;;;;;;;;;;29.70;91.50;;;;;;1809333;78;20538;-88
2021/06/17 01:56:25;;;;;;;;;;;29.80;91.10;;;;;;1801152;78;20187;-88
2021/06/17 01:58:56;;;;;;;;;;;29.90;90.60;;;;;;1791032;78;20214;-87
2021/06/17 02:01:30;;;;;;;;;;;30.00;90.70;;;;;;1803418;79;20288;-87
2021/06/17 02:03:58;;;;;;;;;;;30.10;90.20;;;;;;1778620;78;20264;-87
2021/06/17 02:06:30;;;;;;;;;;;30.10;90.20;;;;;;1804470;79;20157;-87
2021/06/17 02:09:00;;;;;;;;;;;30.00;90.40;;;;;;1807485;79;20204;-87
2021/06/17 02:11:31;;;;;;;;;;;29.90;89.40;;;;;;1800978;79;20211;-88
2021/06/17 02:14:01;;;;;;;;;;;29.80;90.00;;;;;;1807341;79;20153;-88
2021/06/17 02:16:34;;;;;;;;;;;29.70;90.20;;;;;;1789762;79;20203;-88
2021/06/17 02:19:03;;;;;;;;;;;29.70;90.20;;;;;;1788328;80;20153;-88
2021/06/17 02:21:32;;;;;;;;;;;29.60;90.50;;;;;;1804709;78;20187;-88
2021/06/17 02:24:04;;;;;;;;;;;29.70;90.30;;;;;;1799273;79;20695;-87
2021/06/17 02:26:34;;;;;;;;;;;29.80;90.10;;;;;;1798649;79;20157;-87
2021/06/17 02:29:04;;;;;;;;;;;29.90;90.00;;;;;;1782361;79;20561;-88
2021/06/17 02:31:34;;;;;;;;;;;30.00;89.30;;;;;;1761127;79;20140;-88
2021/06/17 02:34:04;;;;;;;;;;;30.10;89.30;;;;;;1792084;77;20188;-89
2021/06/17 02:36:35;;;;;;;;;;;30.30;88.90;;;;;;1806667;79;20425;-91
2021/06/17 02:39:08;;;;;;;;;;;30.50;87.50;;;;;;1793107;79;20176;-92
2021/06/17 02:41:39;;;;;;;;;;;30.60;86.20;;;;;;1790824;79;20488;-91
2021/06/17 02:44:10;;;;;;;;;;;30.70;86.00;;;;;;1796235;78;20436;-90
2021/06/17 02:46:40;;;;;;;;;;;30.80;85.20;;;;;;1806812;79;20180;-89
2021/06/17 02:49:16;;;;;;;;;;;30.90;85.50;;;;;;1782829;79;20458;-87
2021/06/17 02:51:48;;;;;;;;;;;31.10;84.40;;;;;;1792987;78;20204;-91
2021/06/17 02:54:21;;;;;;;;;;;31.10;84.20;;;;;;1804071;79;20141;-88
2021/06/17 02:56:52;;;;;;;;;;;31.10;83.50;;;;;;1795556;79;20227;-91
2021/06/17 02:59:23;;;;;;;;;;;31.10;83.80;;;;;;1800395;78;20220;-77
2021/06/17 03:01:54;;;;;;;;;;;31.10;84.30;;;;;;1811806;79;20227;-75
2021/06/17 03:04:25;;;;;;;;;;;31.20;84.50;;;;;;1816795;79;20187;-76
2021/06/17 03:06:57;;;;;;;;;;;31.30;84.80;;;;;;1816772;79;20231;-75
2021/06/17 03:09:28;;;;;;;;;;;31.40;83.40;;;;;;1810813;78;20188;-77
2021/06/17 03:11:58;;;;;;;;;;;31.50;82.00;;;;;;1812848;79;20409;-76
2021/06/17 03:14:29;;;;;;;;;;;31.60;81.90;;;;;;1813323;79;20157;-75
2021/06/17 03:17:00;;;;;;;;;;;31.60;81.90;;;;;;1817029;76;20505;-76
2021/06/17 03:19:31;;;;;;;;;;;31.60;82.50;;;;;;1818547;78;20204;-76
2021/06/17 03:22:02;;;;;;;;;;;31.70;81.90;;;;;;1836977;77;20209;-77
2021/06/17 03:24:37;;;;;;;;;;;31.80;80.60;;;;;;1814180;77;20208;-76
2021/06/17 03:27:05;;;;;;;;;;;31.90;80.60;;;;;;1818953;77;20498;-77
2021/06/17 03:29:36;;;;;;;;;;;32.00;81.00;;;;;;1825062;76;20315;-75
2021/06/17 03:32:07;;;;;;;;;;;32.00;79.90;;;;;;1826308;77;20215;-77
2021/06/17 03:34:38;;;;;;;;;;;32.00;80.60;;;;;;1818135;78;20535;-78
2021/06/17 03:37:08;;;;;;;;;;;32.00;80.40;;;;;;1802687;78;20214;-76
2021/06/17 03:39:39;;;;;;;;;;;32.10;79.70;;;;;;1812053;77;20278;-75
2021/06/17 03:42:10;;;;;;;;;;;32.10;78.40;;;;;;1814629;78;20145;-76
2021/06/17 03:44:41;;;;;;;;;;;32.10;79.90;;;;;;1818165;78;20235;-76
2021/06/17 03:47:11;;;;;;;;;;;32.20;78.30;;;;;;1817892;76;20498;-76
2021/06/17 03:49:42;;;;;;;;;;;32.20;78.60;;;;;;1817535;79;20635;-77
2021/06/17 03:52:13;;;;;;;;;;;32.30;78.60;;;;;;1780249;80;20236;-76
2021/06/17 03:54:44;;;;;;;;;;;32.20;78.70;;;;;;1814907;77;20205;-76
2021/06/17 03:57:15;;;;;;;;;;;32.20;78.10;;;;;;1809748;79;20196;-75
2021/06/17 03:59:45;;;;;;;;;;;32.20;77.90;;;;;;1794551;78;20440;-75
2021/06/17 04:02:15;;;;;;;;;;;32.20;77.60;;;;;;1774058;79;20247;-76
2021/06/17 04:04:46;;;;;;;;;;;32.30;76.70;;;;;;1745952;82;20234;-74
2021/06/17 04:07:17;;;;;;;;;;;32.50;76.30;;;;;;1770883;78;20238;-74
2021/06/17 04:09:48;;;;;;;;;;;32.60;75.10;;;;;;1759545;80;20609;-75
2021/06/17 04:12:18;;;;;;;;;;;32.60;74.70;;;;;;1761394;80;20225;-75
2021/06/17 04:14:50;;;;;;;;;;;32.70;75.00;;;;;;1707564;82;20210;-75
2021/06/17 04:17:21;;;;;;;;;;;32.80;73.40;;;;;;1758579;80;20199;-74
2021/06/17 04:19:51;;;;;;;;;;;32.90;73.50;;;;;;1757388;82;20211;-75
2021/06/17 04:22:21;;;;;;;;;;;33.10;74.00;;;;;;1747471;80;20214;-74
2021/06/17 04:24:52;;;;;;;;;;;33.10;73.10;;;;;;1758742;80;20460;-75
2021/06/17 04:27:22;;;;;;;;;;;33.10;72.90;;;;;;1758976;80;20179;-75
2021/06/17 04:29:53;;;;;;;;;;;33.10;73.20;;;;;;1759663;80;20238;-75
2021/06/17 04:32:24;;;;;;;;;;;33.10;71.90;;;;;;1759789;80;20139;-76
2021/06/17 04:34:56;;;;;;;;;;;33.20;72.00;;;;;;1758245;80;20238;-76
2021/06/17 04:37:27;;;;;;;;;;;33.20;72.60;;;;;;1758564;82;20647;-75
2021/06/17 04:39:58;;;;;;;;;;;33.20;72.70;;;;;;1758096;82;20238;-75
2021/06/17 04:42:32;;;;;;;;;;;33.20;73.00;;;;;;1758561;80;20217;-75
2021/06/17 04:45:02;;;;;;;;;;;33.20;72.40;;;;;;1759130;80;20214;-75
2021/06/17 04:47:32;;;;;;;;;;;33.10;72.60;;;;;;1758223;80;20139;-76
2021/06/17 04:50:02;;;;;;;;;;;33.30;71.30;;;;;;1758392;82;20172;-75
2021/06/17 04:52:35;;;;;;;;;;;33.40;72.10;;;;;;1751474;82;20264;-75
2021/06/17 04:55:08;;;;;;;;;;;33.40;74.80;;;;;;1754873;81;20202;-75
2021/06/17 04:57:39;;;;;;;;;;;33.30;75.20;;;;;;1752409;80;20250;-75
2021/06/17 05:00:13;;;;;;;;;;;33.10;75.80;;;;;;1778198;77;20270;-76
2021/06/17 05:02:43;;;;;;;;;;;32.90;76.80;;;;;;1831753;77;20255;-75
2021/06/17 05:05:14;;;;;;;;;;;32.70;76.60;;;;;;1827716;77;20470;-74
2021/06/17 05:12:47;;;;;;;;;;;32.40;76.40;;;;;;1819800;78;20215;-76
2021/06/17 05:15:17;;;;;;;;;;;32.30;77.30;;;;;;1818160;79;20180;-75
2021/06/17 05:17:47;;;;;;;;;;;32.40;76.40;;;;;;1783683;79;20178;-77
2021/06/17 05:20:16;;;;;;;;;;;32.40;76.20;;;;;;1786544;79;20171;-76
2021/06/17 05:22:46;;;;;;;;;;;32.40;76.30;;;;;;1793075;79;20133;-77
2021/06/17 05:25:16;;;;;;;;;;;32.40;77.10;;;;;;1797237;79;20214;-76
2021/06/17 05:27:46;;;;;;;;;;;32.40;77.30;;;;;;1797511;79;20199;-77
2021/06/17 05:30:16;;;;;;;;;;;32.30;76.60;;;;;;1800493;78;20245;-77
2021/06/17 05:32:46;;;;;;;;;;;32.30;75.50;;;;;;1782822;79;20166;-77
2021/06/17 05:35:16;;;;;;;;;;;32.30;75.50;;;;;;1792794;78;20246;-77
2021/06/17 05:37:46;;;;;;;;;;;32.40;74.20;;;;;;1806997;78;20202;-77
2021/06/17 05:40:18;;;;;;;;;;;32.50;74.40;;;;;;1782223;79;20240;-77
2021/06/17 05:42:48;;;;;;;;;;;32.60;74.50;;;;;;1790902;79;20457;-77
2021/06/17 05:45:17;;;;;;;;;;;32.60;74.80;;;;;;1788327;79;20226;-77
2021/06/17 05:47:50;;;;;;;;;;;32.60;74.60;;;;;;1797195;78;20187;-77
2021/06/17 05:50:20;;;;;;;;;;;32.70;74.10;;;;;;1824193;78;20296;-78
2021/06/17 05:52:49;;;;;;;;;;;32.70;73.80;;;;;;1822742;77;20233;-77
2021/06/17 05:55:20;;;;;;;;;;;32.80;74.10;;;;;;1841134;77;20204;-77
2021/06/17 05:57:50;;;;;;;;;;;32.70;74.10;;;;;;1838707;77;20189;-75
2021/06/17 06:00:20;;;;;;;;;;;32.70;74.60;;;;;;1857555;76;20239;-76
2021/06/17 06:02:50;;;;;;;;;;;32.70;75.40;;;;;;1849193;77;20224;-76
2021/06/17 06:05:21;;;;;;;;;;;32.70;73.00;;;;;;1843256;77;20232;-76
2021/06/17 06:07:52;;;;;;;;;;;32.80;73.50;;;;;;1807546;77;20248;-75
2021/06/17 06:10:21;;;;;;;;;;;32.80;74.40;;;;;;1806316;79;20316;-76
2021/06/17 06:12:51;;;;;;;;;;;32.80;74.00;;;;;;1814762;77;20153;-75
2021/06/17 06:15:24;;;;;;;;;;;32.80;73.80;;;;;;1815715;77;20552;-78
2021/06/17 06:17:53;;;;;;;;;;;32.80;72.80;;;;;;1814486;78;20200;-75
2021/06/17 06:20:26;;;;;;;;;;;32.80;72.00;;;;;;1819378;77;20207;-75
2021/06/17 06:22:57;;;;;;;;;;;33.00;70.90;;;;;;1814914;77;20120;-76
2021/06/17 06:25:26;;;;;;;;;;;33.20;70.00;;;;;;1816311;78;20168;-77
2021/06/17 06:27:56;;;;;;;;;;;33.30;69.60;;;;;;1824952;78;20272;-76
2021/06/17 06:30:28;;;;;;;;;;;33.30;70.20;;;;;;1817052;77;20183;-77
2021/06/17 06:32:58;;;;;;;;;;;33.40;69.10;;;;;;1828307;77;20190;-76
2021/06/17 06:35:31;;;;;;;;;;;33.40;68.80;;;;;;1831149;77;20615;-74
2021/06/17 06:38:02;;;;;;;;;;;33.30;69.60;;;;;;1813773;77;20230;-76
2021/06/17 06:40:33;;;;;;;;;;;33.30;70.70;;;;;;1810337;77;20232;-77
2021/06/17 06:43:03;;;;;;;;;;;33.20;70.30;;;;;;1811638;77;20195;-76
2021/06/17 06:45:33;;;;;;;;;;;33.20;70.80;;;;;;1816793;78;20156;-76
2021/06/17 06:48:04;;;;;;;;;;;33.10;71.10;;;;;;1816642;77;20215;-76
2021/06/17 06:50:34;;;;;;;;;;;33.10;71.90;;;;;;1845324;78;20674;-75
2021/06/17 06:53:04;;;;;;;;;;;33.20;71.90;;;;;;1817323;78;20494;-75
2021/06/17 06:55:34;;;;;;;;;;;33.30;71.50;;;;;;1822055;77;20254;-77
2021/06/17 06:58:04;;;;;;;;;;;33.30;70.50;;;;;;1814525;77;20225;-76
2021/06/17 07:00:34;;;;;;;;;;;33.30;70.50;;;;;;1829123;77;20208;-76
2021/06/17 07:03:05;;;;;;;;;;;33.30;71.10;;;;;;1811302;77;20426;-76
2021/06/17 07:05:35;;;;;;;;;;;33.30;71.10;;;;;;1795851;79;20127;-75
2021/06/17 07:08:10;;;;;;;;;;;33.30;71.40;;;;;;1796211;79;20225;-77
2021/06/17 07:10:36;;;;;;;;;;;33.30;71.70;;;;;;1797766;79;20184;-79
2021/06/17 07:13:06;;;;;;;;;;;33.30;70.60;;;;;;1807790;77;20178;-79
2021/06/17 07:15:36;;;;;;;;;;;33.40;70.30;;;;;;1783172;79;20191;-77
2021/06/17 07:18:06;;;;;;;;;;;33.40;70.40;;;;;;1777727;80;20592;-79
2021/06/17 07:20:36;;;;;;;;;;;33.30;70.80;;;;;;1768226;81;20486;-78
2021/06/17 07:23:06;;;;;;;;;;;33.30;71.20;;;;;;1768689;81;20199;-79
2021/06/17 07:25:36;;;;;;;;;;;33.30;71.00;;;;;;1752222;81;20185;-78
2021/06/17 07:28:06;;;;;;;;;;;33.40;71.30;;;;;;1773868;80;20170;-78
2021/06/17 07:30:35;;;;;;;;;;;33.60;71.30;;;;;;1768640;81;20198;-77
2021/06/17 07:33:07;;;;;;;;;;;33.70;69.40;;;;;;1767501;81;20160;-79
2021/06/17 07:35:37;;;;;;;;;;;33.70;69.80;;;;;;1769061;81;20434;-77
2021/06/17 07:38:07;;;;;;;;;;;33.60;71.20;;;;;;1769023;81;20225;-77
2021/06/17 07:40:40;;;;;;;;;;;33.50;71.20;;;;;;1769063;80;20246;-78
2021/06/17 07:43:09;;;;;;;;;;;33.30;71.60;;;;;;1769276;81;20211;-77
2021/06/17 07:45:39;;;;;;;;;;;33.30;72.00;;;;;;1775024;80;20210;-78
2021/06/17 07:48:13;;;;;;;;;;;33.20;72.80;;;;;;1769193;80;20219;-78
2021/06/17 07:50:42;;;;;;;;;;;33.30;73.40;;;;;;1772380;80;20175;-78
2021/06/17 07:53:12;;;;;;;;;;;33.30;73.00;;;;;;1780629;80;20191;-78
2021/06/17 07:55:42;;;;;;;;;;;33.30;72.50;;;;;;1768741;81;20210;-77
2021/06/17 07:58:12;;;;;;;;;;;33.40;72.40;;;;;;1773240;80;20230;-77
2021/06/17 08:00:42;;;;;;;;;;;33.40;71.50;;;;;;1749380;81;20249;-75
2021/06/17 08:03:12;;;;;;;;;;;33.30;72.00;;;;;;1821119;78;20316;-76
2021/06/17 08:05:42;;;;;;;;;;;33.40;72.40;;;;;;1834218;77;20507;-76
2021/06/17 08:08:12;;;;;;;;;;;33.50;72.50;;;;;;1835644;77;20283;-76
2021/06/17 08:10:42;;;;;;;;;;;33.60;72.20;;;;;;1834484;77;20243;-75
2021/06/17 08:13:14;;;;;;;;;;;33.60;72.20;;;;;;1829390;78;20191;-76
2021/06/17 08:15:44;;;;;;;;;;;33.50;71.90;;;;;;1837376;76;20144;-76
2021/06/17 08:18:14;;;;;;;;;;;33.40;72.10;;;;;;1859774;77;20178;-75
2021/06/17 08:20:44;;;;;;;;;;;33.30;72.40;;;;;;1830590;78;20199;-75
2021/06/17 08:23:15;;;;;;;;;;;33.30;72.80;;;;;;1835890;77;20415;-76
2021/06/17 08:25:47;;;;;;;;;;;33.40;71.30;;;;;;1844870;77;20234;-74
2021/06/17 08:28:17;;;;;;;;;;;33.30;71.60;;;;;;1832515;77;20743;-74
2021/06/17 08:30:47;;;;;;;;;;;33.40;71.00;;;;;;1831952;77;20207;-74
2021/06/17 08:33:16;;;;;;;;;;;33.40;70.70;;;;;;1835392;77;20121;-74
2021/06/17 08:35:49;;;;;;;;;;;33.40;71.30;;;;;;1826520;79;20120;-75
2021/06/17 08:38:17;;;;;;;;;;;33.50;70.80;;;;;;1835078;76;20419;-74
2021/06/17 08:40:50;;;;;;;;;;;33.40;70.80;;;;;;1852945;77;20207;-74
2021/06/17 08:43:19;;;;;;;;;;;33.30;71.40;;;;;;1796951;78;20211;-74
2021/06/17 08:45:50;;;;;;;;;;;33.30;71.70;;;;;;1832532;78;20243;-75
2021/06/17 08:48:19;;;;;;;;;;;33.20;71.70;;;;;;1809597;78;20206;-74
2021/06/17 08:50:49;;;;;;;;;;;33.20;71.70;;;;;;1788702;80;21005;-74
2021/06/17 08:53:19;;;;;;;;;;;33.20;72.00;;;;;;1794786;78;20240;-74
2021/06/17 08:55:49;;;;;;;;;;;33.10;72.30;;;;;;1820349;77;21038;-74
2021/06/17 08:58:19;;;;;;;;;;;33.00;72.30;;;;;;1829004;77;20267;-74
2021/06/17 09:01:08;;;;;;;;;;;33.00;72.60;;;;;;1846199;78;20240;-75
2021/06/17 09:03:40;;;;;;;;;;;33.00;72.80;;;;;;1807515;78;20243;-75
2021/06/17 09:06:10;;;;;;;;;;;33.10;72.90;;;;;;1832202;78;20217;-75
2021/06/17 09:08:40;;;;;;;;;;;33.10;71.80;;;;;;1781924;79;20249;-75
2021/06/17 09:11:11;;;;;;;;;;;33.10;70.90;;;;;;1798363;80;20227;-74
2021/06/17 09:13:41;;;;;;;;;;;33.20;71.60;;;;;;1795627;79;20227;-76
2021/06/17 09:16:15;;;;;;;;;;;33.20;70.70;;;;;;1826167;78;20194;-75
2021/06/17 09:18:45;;;;;;;;;;;33.20;71.90;;;;;;1788756;79;20243;-76
2021/06/17 09:21:15;;;;;;;;;;;33.30;71.80;;;;;;1779987;80;20167;-75
2021/06/17 09:23:46;;;;;;;;;;;33.30;72.80;;;;;;1796743;80;20122;-76
2021/06/17 09:26:18;;;;;;;;;;;33.30;71.30;;;;;;1796805;80;20193;-75
2021/06/17 09:28:49;;;;;;;;;;;33.30;70.60;;;;;;1798744;78;20308;-76
2021/06/17 09:31:20;;;;;;;;;;;33.30;71.00;;;;;;1798801;79;20251;-75
2021/06/17 09:33:53;;;;;;;;;;;33.30;71.20;;;;;;1799899;78;20141;-75
2021/06/17 09:36:23;;;;;;;;;;;33.20;71.10;;;;;;1795851;78;20495;-76
2021/06/17 09:38:55;;;;;;;;;;;33.20;70.20;;;;;;1801569;78;20220;-75
2021/06/17 09:41:26;;;;;;;;;;;33.10;70.00;;;;;;1797615;78;20295;-75
2021/06/17 09:43:56;;;;;;;;;;;33.10;70.30;;;;;;1820263;78;20198;-75
2021/06/17 09:46:29;;;;;;;;;;;33.10;71.10;;;;;;1814204;77;20247;-75
2021/06/17 09:49:03;;;;;;;;;;;33.00;70.80;;;;;;1808559;79;20423;-76
2021/06/17 09:51:37;;;;;;;;;;;33.00;71.30;;;;;;1807574;79;20176;-76
2021/06/17 09:54:07;;;;;;;;;;;33.00;70.40;;;;;;1806660;79;20162;-76
2021/06/17 09:56:38;;;;;;;;;;;33.00;70.80;;;;;;1803345;79;20599;-76
2021/06/17 09:59:10;;;;;;;;;;;33.00;71.10;;;;;;1794818;78;20177;-88
2021/06/17 10:01:45;;;;;;;;;;;33.10;71.20;;;;;;1820123;76;20203;-91
2021/06/17 10:04:13;;;;;;;;;;;33.10;71.20;;;;;;1793253;78;20354;-93
2021/06/17 10:06:43;;;;;;;;;;;33.10;69.60;;;;;;1812116;78;20287;-92
2021/06/17 10:09:16;;;;;;;;;;;33.10;69.60;;;;;;1810604;79;20180;-92
2021/06/17 10:11:47;;;;;;;;;;;33.10;70.10;;;;;;1801489;79;20212;-91
2021/06/17 10:14:17;;;;;;;;;;;33.10;70.00;;;;;;1868899;77;20142;-90
2021/06/17 10:16:48;;;;;;;;;;;33.10;68.70;;;;;;1822659;77;20176;-93
2021/06/17 10:19:19;;;;;;;;;;;33.10;69.00;;;;;;1830423;77;20176;-92
2021/06/17 10:21:49;;;;;;;;;;;33.10;69.10;;;;;;1830728;77;20172;-92
2021/06/17 10:24:20;;;;;;;;;;;33.10;68.80;;;;;;1827852;77;20223;-88
2021/06/17 10:26:51;;;;;;;;;;;33.10;68.90;;;;;;1869443;77;20135;-85
2021/06/17 10:29:22;;;;;;;;;;;33.10;69.10;;;;;;1869886;77;20138;-92
2021/06/17 10:31:52;;;;;;;;;;;33.10;69.50;;;;;;1867980;76;20433;-89
2021/06/17 10:34:23;;;;;;;;;;;33.10;69.90;;;;;;1870240;77;20167;-91
2021/06/17 10:36:54;;;;;;;;;;;33.00;68.30;;;;;;1863713;77;20185;-91
2021/06/17 10:39:25;;;;;;;;;;;33.00;68.30;;;;;;1836882;77;20128;-89
2021/06/17 10:41:56;;;;;;;;;;;33.00;68.10;;;;;;1830589;77;20333;-90
2021/06/17 10:44:26;;;;;;;;;;;33.00;67.90;;;;;;1828036;78;20176;-91
2021/06/17 10:46:56;;;;;;;;;;;33.00;67.30;;;;;;1827435;78;20160;-88
2021/06/17 10:49:27;;;;;;;;;;;33.00;67.60;;;;;;1828529;78;20129;-90
2021/06/17 10:51:58;;;;;;;;;;;33.00;67.90;;;;;;1830088;77;20199;-89
2021/06/17 10:54:28;;;;;;;;;;;33.00;68.80;;;;;;1867021;77;20267;-92
2021/06/17 10:56:58;;;;;;;;;;;33.00;68.90;;;;;;1828364;77;20187;-92
2021/06/17 10:59:29;;;;;;;;;;;32.90;69.20;;;;;;1832222;78;20187;-88
2021/06/17 11:02:00;;;;;;;;;;;32.90;69.30;;;;;;1834420;77;20172;-86
2021/06/17 11:04:31;;;;;;;;;;;32.80;69.70;;;;;;1826838;78;20215;-90
2021/06/17 11:07:01;;;;;;;;;;;32.80;70.40;;;;;;1825817;78;20231;-90
2021/06/17 11:09:33;;;;;;;;;;;32.80;71.10;;;;;;1836186;77;20191;-91
2021/06/17 11:12:03;;;;;;;;;;;32.70;71.40;;;;;;1857291;77;20263;-91
2021/06/17 11:14:34;;;;;;;;;;;32.70;71.30;;;;;;1863078;77;20224;-90
2021/06/17 11:17:05;;;;;;;;;;;32.70;72.00;;;;;;1862001;77;20243;-91
2021/06/17 11:19:54;;;;;;;;;;;32.60;72.10;;;;;;1859041;77;20437;-92
2021/06/17 11:22:25;;;;;;;;;;;32.60;72.30;;;;;;1812271;79;20624;-90
2021/06/17 11:24:54;;;;;;;;;;;32.50;72.20;;;;;;1786432;80;20178;-92
2021/06/17 11:27:25;;;;;;;;;;;32.50;72.80;;;;;;1789810;79;20213;-91
2021/06/17 11:29:56;;;;;;;;;;;32.50;72.60;;;;;;1797510;77;20297;-88
2021/06/17 11:32:27;;;;;;;;;;;32.40;72.80;;;;;;1764147;79;20147;-90
2021/06/17 11:35:01;;;;;;;;;;;32.40;72.90;;;;;;1789433;79;20163;-92
2021/06/17 11:37:33;;;;;;;;;;;32.40;73.00;;;;;;1798027;79;20170;-91
2021/06/17 11:40:03;;;;;;;;;;;32.30;73.30;;;;;;1800123;79;20258;-89
2021/06/17 11:42:42;;;;;;;;;;;32.30;73.40;;;;;;1797155;79;20142;-92
2021/06/17 11:45:10;;;;;;;;;;;32.20;73.20;;;;;;1794660;79;20244;-91
2021/06/17 11:47:49;;;;;;;;;;;32.20;73.50;;;;;;1787758;79;20449;-91
2021/06/17 11:50:29;;;;;;;;;;;32.10;73.60;;;;;;1793112;79;20232;-88
2021/06/17 11:52:52;;;;;;;;;;;32.00;73.90;;;;;;1798685;79;20216;-89
2021/06/17 11:55:22;;;;;;;;;;;32.00;74.10;;;;;;1798104;79;20208;-90
2021/06/17 11:58:00;;;;;;;;;;;32.00;74.20;;;;;;1797160;79;20202;-90
2021/06/17 12:00:52;;;;;;;;;;;31.90;74.10;;;;;;1801197;78;20208;-91
2021/06/17 12:03:11;;;;;;;;;;;31.90;74.20;;;;;;1781569;78;20575;-88
2021/06/17 12:05:41;;;;;;;;;;;31.80;74.20;;;;;;1788883;79;20227;-91
2021/06/17 12:08:10;;;;;;;;;;;31.90;74.80;;;;;;1782214;78;20529;-91
2021/06/17 12:10:47;;;;;;;;;;;31.80;74.80;;;;;;1801266;79;20167;-88
2021/06/17 12:13:13;;;;;;;;;;;31.80;75.00;;;;;;1759131;82;20208;-92
2021/06/17 12:15:44;;;;;;;;;;;31.70;75.20;;;;;;1764633;80;20258;-91
2021/06/17 12:18:17;;;;;;;;;;;31.70;75.50;;;;;;1795056;79;20212;-90
2021/06/17 12:20:47;;;;;;;;;;;31.70;75.90;;;;;;1796351;78;20296;-91
2021/06/17 12:23:20;;;;;;;;;;;31.60;76.10;;;;;;1782589;79;20127;-89
2021/06/17 12:25:50;;;;;;;;;;;31.60;76.40;;;;;;1797267;79;20315;-90
2021/06/17 12:28:19;;;;;;;;;;;31.50;76.70;;;;;;1804561;79;20214;-90
2021/06/17 12:31:04;;;;;;;;;;;31.60;77.20;;;;;;1802734;78;20463;-92
2021/06/17 12:33:22;;;;;;;;;;;31.50;77.20;;;;;;1798619;78;20208;-91
2021/06/17 12:35:53;;;;;;;;;;;31.40;77.50;;;;;;1797687;79;20220;-90
2021/06/17 12:38:24;;;;;;;;;;;31.40;78.00;;;;;;1804705;77;20137;-88
2021/06/17 12:41:05;;;;;;;;;;;31.40;78.10;;;;;;1798889;79;20223;-89
2021/06/17 12:43:42;;;;;;;;;;;31.30;78.10;;;;;;1795805;79;20204;-90
2021/06/17 12:46:10;;;;;;;;;;;31.30;78.10;;;;;;1801299;78;20251;-88
2021/06/17 12:54:02;;;;;;;;;;;31.20;78.30;;;;;;1784672;80;20138;-88
2021/06/17 12:56:36;;;;;;;;;;;31.20;78.60;;;;;;1750099;80;20510;-88
2021/06/17 12:59:11;;;;;;;;;;;31.10;78.80;;;;;;1770515;79;20180;-89
2021/06/17 13:01:47;;;;;;;;;;;31.10;78.90;;;;;;1765879;79;20142;-90
2021/06/17 13:04:20;;;;;;;;;;;31.10;79.10;;;;;;1790204;80;20152;-88
2021/06/17 13:06:54;;;;;;;;;;;31.10;79.40;;;;;;1796104;77;20252;-85
2021/06/17 13:09:29;;;;;;;;;;;31.00;79.60;;;;;;1791987;80;20413;-90
2021/06/17 13:12:01;;;;;;;;;;;31.00;79.70;;;;;;1789480;80;20193;-89
2021/06/17 13:14:31;;;;;;;;;;;31.00;79.70;;;;;;1786146;79;20188;-89
2021/06/17 13:17:06;;;;;;;;;;;31.00;80.20;;;;;;1790393;80;20209;-90
2021/06/17 13:19:38;;;;;;;;;;;30.90;80.10;;;;;;1790597;80;20194;-89
2021/06/17 13:22:14;;;;;;;;;;;30.90;80.30;;;;;;1787473;78;20172;-89
2021/06/17 13:24:45;;;;;;;;;;;30.90;80.40;;;;;;1798160;79;20204;-87
2021/06/17 13:27:16;;;;;;;;;;;30.90;80.70;;;;;;1803251;79;20268;-88
2021/06/17 13:29:47;;;;;;;;;;;30.90;80.90;;;;;;1778236;79;20181;-90
2021/06/17 13:32:21;;;;;;;;;;;30.90;81.10;;;;;;1762099;79;20195;-89
2021/06/17 13:35:03;;;;;;;;;;;30.90;81.20;;;;;;1814319;77;20204;-89
2021/06/17 13:37:35;;;;;;;;;;;30.80;81.40;;;;;;1803371;78;20189;-88
2021/06/17 13:40:07;;;;;;;;;;;30.90;81.70;;;;;;1800031;77;20190;-86
2021/06/17 13:42:38;;;;;;;;;;;30.80;81.90;;;;;;1807489;78;20200;-85
2021/06/17 13:45:11;;;;;;;;;;;30.80;82.30;;;;;;1812910;78;20208;-87
2021/06/17 13:47:41;;;;;;;;;;;30.80;82.40;;;;;;1814366;78;20244;-89
2021/06/17 13:50:11;;;;;;;;;;;30.70;82.50;;;;;;1816760;78;20175;-89
2021/06/17 13:52:41;;;;;;;;;;;30.70;82.70;;;;;;1791693;79;20200;-89
2021/06/17 13:55:15;;;;;;;;;;;30.70;82.80;;;;;;1812193;79;20476;-89
2021/06/17 13:57:44;;;;;;;;;;;30.70;83.00;;;;;;1813664;77;20186;-90
2021/06/17 14:00:15;;;;;;;;;;;30.70;83.10;;;;;;1798505;77;20212;-89
2021/06/17 14:02:46;;;;;;;;;;;30.70;83.20;;;;;;1814179;78;20256;-86
2021/06/17 14:05:16;;;;;;;;;;;30.60;83.30;;;;;;1813336;78;20212;-87
2021/06/17 14:07:46;;;;;;;;;;;30.60;83.40;;;;;;1806277;78;20192;-87
2021/06/17 14:10:17;;;;;;;;;;;30.50;83.40;;;;;;1817748;77;20192;-90
2021/06/17 14:12:49;;;;;;;;;;;30.50;83.40;;;;;;1814179;78;20194;-91
2021/06/17 14:15:18;;;;;;;;;;;30.50;83.50;;;;;;1794001;77;20156;-89
2021/06/17 14:17:50;;;;;;;;;;;30.60;83.70;;;;;;1813224;78;20170;-90
2021/06/17 14:20:20;;;;;;;;;;;30.60;83.80;;;;;;1798661;78;20672;-88
2021/06/17 14:22:50;;;;;;;;;;;30.50;83.60;;;;;;1796594;78;20232;-91
2021/06/17 14:25:19;;;;;;;;;;;30.50;83.70;;;;;;1763643;80;20497;-89
2021/06/17 14:27:49;;;;;;;;;;;30.50;83.80;;;;;;1807061;77;20167;-88
2021/06/17 14:30:20;;;;;;;;;;;30.50;83.70;;;;;;1804907;78;20258;-90
2021/06/17 14:33:08;;;;;;;;;;;30.50;83.50;;;;;;1813286;78;20200;-87
2021/06/17 14:35:39;;;;;;;;;;;30.50;83.40;;;;;;1805221;78;20221;-92
2021/06/17 14:38:09;;;;;;;;;;;30.50;83.30;;;;;;1823013;78;20256;-91
2021/06/17 14:40:39;;;;;;;;;;;30.50;83.30;;;;;;1763316;80;20621;-90
2021/06/17 14:43:09;;;;;;;;;;;30.50;84.00;;;;;;1804855;79;20188;-91
2021/06/17 14:45:39;;;;;;;;;;;30.40;83.80;;;;;;1802708;78;20222;-88
2021/06/17 14:48:09;;;;;;;;;;;30.40;84.00;;;;;;1796580;79;20431;-92